Time;durP1;ratioP1;P1;durP2;ratioP2;P2;SDS_P1;SDS_P2;PMS_P1;PMS_P2;Temp;Humidity;BMP_temperature;BMP_pressure;BME280_temperature;BME280_humidity;BME280_pressure;Samples;Min_cycle;Max_cycle;Signal;HPM_P1;HPM_P2
2023/05/31 00:03:15;;;;;;;;;;;;;;;13.44;100.00;95932.94;10345884;28;1991;-70
2023/05/31 00:08:18;;;;;;;;;;;;;;;13.38;100.00;95925.19;10348984;28;2313;-70
2023/05/31 00:13:25;;;;;;;;;;;;;;;13.30;100.00;95932.00;10342815;28;1965;-70
2023/05/31 00:18:28;;;;;;;;;;;;;;;13.21;100.00;95931.00;10347298;28;2045;-69
2023/05/31 00:23:30;;;;;;;;;;;;;;;13.18;100.00;95934.28;10344977;28;2203;-69
2023/05/31 00:28:33;;;;;;;;;;;;;;;13.11;100.00;95929.22;10345150;28;4356;-69
2023/05/31 00:33:35;;;;;;;;;;;;;;;13.09;100.00;95927.88;10343044;28;1995;-70
2023/05/31 00:38:38;;;;;;;;;;;;;;;13.05;100.00;95924.16;10346475;28;1943;-69
2023/05/31 00:43:40;;;;;;;;;;;;;;;12.98;100.00;95925.28;10346531;28;2353;-69
2023/05/31 00:48:43;;;;;;;;;;;;;;;12.92;100.00;95925.63;10345906;28;2027;-72
2023/05/31 00:53:45;;;;;;;;;;;;;;;12.89;100.00;95928.88;10347085;28;2033;-71
2023/05/31 00:58:48;;;;;;;;;;;;;;;12.82;100.00;95929.22;10342595;28;1946;-70
2023/05/31 01:03:50;;;;;;;;;;;;;;;12.66;100.00;95933.09;10344218;28;2281;-69
2023/05/31 01:08:53;;;;;;;;;;;;;;;12.62;100.00;95932.09;10342497;28;1971;-71
2023/05/31 01:13:56;;;;;;;;;;;;;;;12.58;100.00;95931.03;10345113;28;2079;-70
2023/05/31 01:19:02;;;;;;;;;;;;;;;12.48;100.00;95931.94;10339962;28;2026;-70
2023/05/31 01:24:05;;;;;;;;;;;;;;;12.36;100.00;95928.78;10344307;28;1902;-68
2023/05/31 01:29:08;;;;;;;;;;;;;;;12.30;100.00;95922.63;10342947;28;4163;-70
2023/05/31 01:34:11;;;;;;;;;;;;;;;12.25;100.00;95922.66;10345067;28;2013;-68
2023/05/31 01:39:13;;;;;;;;;;;;;;;12.18;100.00;95916.78;10340586;28;1989;-67
2023/05/31 01:44:18;;;;;;;;;;;;;;;12.09;100.00;95915.78;10340343;28;1993;-69
2023/05/31 01:49:21;;;;;;;;;;;;;;;12.02;100.00;95917.94;10352924;28;1990;-69
2023/05/31 01:54:23;;;;;;;;;;;;;;;11.97;100.00;95916.09;10341886;28;1896;-69
2023/05/31 01:59:26;;;;;;;;;;;;;;;11.88;100.00;95913.16;10343978;28;2323;-70
2023/05/31 02:04:29;;;;;;;;;;;;;;;11.87;100.00;95922.34;10340452;28;2149;-69
2023/05/31 02:09:32;;;;;;;;;;;;;;;11.80;100.00;95927.19;10340671;28;1843;-69
2023/05/31 02:14:34;;;;;;;;;;;;;;;11.75;100.00;95924.53;10343924;28;1922;-68
2023/05/31 02:19:37;;;;;;;;;;;;;;;11.76;100.00;95930.72;10342451;28;2039;-69
2023/05/31 02:24:40;;;;;;;;;;;;;;;11.63;100.00;95927.53;10340744;28;2013;-69
2023/05/31 02:29:42;;;;;;;;;;;;;;;11.48;100.00;95922.22;10345994;28;4477;-69
2023/05/31 02:34:45;;;;;;;;;;;;;;;11.48;100.00;95922.22;10338373;28;1857;-69
2023/05/31 02:39:47;;;;;;;;;;;;;;;11.40;100.00;95922.00;10342915;28;1934;-70
2023/05/31 02:44:50;;;;;;;;;;;;;;;11.26;100.00;95927.97;10342054;28;1910;-69
2023/05/31 02:49:53;;;;;;;;;;;;;;;11.25;100.00;95918.25;10344522;28;1845;-68
2023/05/31 02:54:56;;;;;;;;;;;;;;;11.19;100.00;95921.25;10338996;28;1894;-71
2023/05/31 02:59:58;;;;;;;;;;;;;;;11.13;100.00;95917.75;10343342;28;2260;-69
2023/05/31 03:05:02;;;;;;;;;;;;;;;11.14;100.00;95924.78;10344164;28;1999;-68
2023/05/31 03:10:05;;;;;;;;;;;;;;;11.12;100.00;95921.53;10343325;28;1896;-69
2023/05/31 03:15:08;;;;;;;;;;;;;;;11.14;100.00;95929.34;10341106;28;1943;-69
2023/05/31 03:20:10;;;;;;;;;;;;;;;11.15;100.00;95931.75;10336194;28;1856;-68
2023/05/31 03:25:13;;;;;;;;;;;;;;;11.19;100.00;95938.19;10342547;28;1915;-70
2023/05/31 03:30:16;;;;;;;;;;;;;;;11.18;100.00;95936.59;10339304;28;1974;-69
2023/05/31 03:35:19;;;;;;;;;;;;;;;11.18;100.00;95939.28;10351383;28;1936;-69
2023/05/31 03:40:21;;;;;;;;;;;;;;;11.18;100.00;95941.97;10347763;28;1858;-69
2023/05/31 03:45:23;;;;;;;;;;;;;;;11.19;100.00;95937.38;10348382;28;1918;-69
2023/05/31 03:50:26;;;;;;;;;;;;;;;11.26;100.00;95938.72;10351755;28;1882;-69
2023/05/31 03:55:30;;;;;;;;;;;;;;;11.30;100.00;95945.16;10345943;28;2456;-68
2023/05/31 04:00:34;;;;;;;;;;;;;;;11.37;100.00;95945.69;10346625;28;1884;-69
2023/05/31 04:05:37;;;;;;;;;;;;;;;11.44;100.00;95933.81;10348710;28;1922;-68
2023/05/31 04:10:40;;;;;;;;;;;;;;;11.60;100.00;95941.56;10359083;28;1876;-69
2023/05/31 04:15:43;;;;;;;;;;;;;;;11.80;100.00;95937.16;10346541;28;2158;-69
2023/05/31 04:20:45;;;;;;;;;;;;;;;12.16;100.00;95935.91;10345578;28;1895;-69
2023/05/31 04:25:48;;;;;;;;;;;;;;;12.30;100.00;95936.09;10346542;28;1939;-69
2023/05/31 04:30:51;;;;;;;;;;;;;;;12.41;100.00;95943.03;10346209;28;2086;-69
2023/05/31 04:35:56;;;;;;;;;;;;;;;12.56;100.00;95946.69;10345715;28;1910;-68
2023/05/31 04:40:59;;;;;;;;;;;;;;;12.37;100.00;95941.97;10342901;28;1922;-69
2023/05/31 04:46:02;;;;;;;;;;;;;;;12.72;100.00;95948.16;10341880;28;1910;-69
2023/05/31 04:51:05;;;;;;;;;;;;;;;12.76;100.00;95949.22;10346936;28;2248;-69
2023/05/31 04:56:09;;;;;;;;;;;;;;;13.36;100.00;95949.78;10348111;28;1857;-70
2023/05/31 05:01:14;;;;;;;;;;;;;;;13.77;100.00;95957.38;10343536;28;2250;-69
2023/05/31 05:06:16;;;;;;;;;;;;;;;13.99;100.00;95964.94;10344768;28;1972;-68
2023/05/31 05:11:19;;;;;;;;;;;;;;;14.06;100.00;95966.22;10341474;28;1923;-69
2023/05/31 05:16:21;;;;;;;;;;;;;;;14.03;100.00;95958.66;10340505;28;1899;-70
2023/05/31 05:21:24;;;;;;;;;;;;;;;13.98;100.00;95961.44;10337921;28;1872;-69
2023/05/31 05:26:26;;;;;;;;;;;;;;;14.29;100.00;95969.13;10337399;28;4511;-69
2023/05/31 05:31:29;;;;;;;;;;;;;;;14.22;100.00;95966.00;10338846;28;1986;-69
2023/05/31 05:36:32;;;;;;;;;;;;;;;14.11;100.00;95962.63;10338223;28;1903;-69
2023/05/31 05:41:34;;;;;;;;;;;;;;;14.41;100.00;95969.50;10336984;28;1907;-69
2023/05/31 05:46:36;;;;;;;;;;;;;;;14.49;100.00;95963.44;10336648;28;2300;-69
2023/05/31 05:51:39;;;;;;;;;;;;;;;15.02;98.84;95957.75;10334572;28;1871;-70
2023/05/31 05:56:41;;;;;;;;;;;;;;;15.57;95.79;95959.72;10334010;28;2058;-68
2023/05/31 06:01:44;;;;;;;;;;;;;;;15.50;98.75;95960.13;10331210;28;1922;-71
2023/05/31 06:06:46;;;;;;;;;;;;;;;15.47;96.29;95966.16;10333623;28;2082;-72
2023/05/31 06:11:48;;;;;;;;;;;;;;;15.42;95.88;95960.81;10332248;28;1971;-72
2023/05/31 06:16:51;;;;;;;;;;;;;;;15.91;95.61;95962.06;10335927;28;1895;-72
2023/05/31 06:21:57;;;;;;;;;;;;;;;15.96;93.62;95964.66;10338269;28;1924;-72
2023/05/31 06:27:02;;;;;;;;;;;;;;;15.74;94.91;95976.22;10334581;28;4418;-72
2023/05/31 06:32:04;;;;;;;;;;;;;;;15.99;95.08;95971.41;10333802;28;1932;-72
2023/05/31 06:37:08;;;;;;;;;;;;;;;15.92;94.78;95977.22;10337283;28;2023;-71
2023/05/31 06:42:11;;;;;;;;;;;;;;;15.89;93.58;95965.06;10336760;28;2243;-70
2023/05/31 06:47:14;;;;;;;;;;;;;;;16.13;94.79;95975.69;10337023;28;1892;-70
2023/05/31 06:52:16;;;;;;;;;;;;;;;16.50;92.85;95960.22;10334179;28;1894;-70
2023/05/31 06:57:18;;;;;;;;;;;;;;;16.23;92.61;95965.75;10334675;28;1953;-70
2023/05/31 07:02:21;;;;;;;;;;;;;;;16.16;95.00;95963.44;10334903;28;2094;-71
2023/05/31 07:07:24;;;;;;;;;;;;;;;16.48;94.16;95957.03;10345641;28;1895;-71
2023/05/31 07:12:26;;;;;;;;;;;;;;;17.09;91.57;95958.28;10343519;28;1999;-71
2023/05/31 07:17:29;;;;;;;;;;;;;;;17.17;90.39;95952.09;10345242;28;2010;-69
2023/05/31 07:22:32;;;;;;;;;;;;;;;17.24;89.34;95963.34;10344533;28;1891;-70
2023/05/31 07:27:34;;;;;;;;;;;;;;;17.35;87.68;95953.00;10348321;28;4572;-70
2023/05/31 07:32:37;;;;;;;;;;;;;;;17.54;84.65;95956.28;10349474;28;1899;-70
2023/05/31 07:37:39;;;;;;;;;;;;;;;17.42;86.07;95957.97;10344676;28;1843;-71
2023/05/31 07:42:43;;;;;;;;;;;;;;;17.87;86.29;95958.66;10342619;28;1910;-71
2023/05/31 07:47:46;;;;;;;;;;;;;;;18.13;82.52;95956.00;10347140;28;1880;-70
2023/05/31 07:52:49;;;;;;;;;;;;;;;18.87;79.65;95950.47;10344303;28;2138;-71
2023/05/31 07:57:52;;;;;;;;;;;;;;;18.86;77.39;95951.59;10342763;28;1844;-71
2023/05/31 08:02:54;;;;;;;;;;;;;;;18.85;77.92;95944.56;10345654;28;1890;-71
2023/05/31 08:07:57;;;;;;;;;;;;;;;18.80;73.73;95949.38;10344974;28;1863;-72
2023/05/31 08:13:00;;;;;;;;;;;;;;;18.93;74.83;95939.44;10342200;28;1947;-70
2023/05/31 08:18:02;;;;;;;;;;;;;;;18.44;77.01;95941.50;10346227;28;1907;-72
2023/05/31 08:23:05;;;;;;;;;;;;;;;18.64;74.17;95943.59;10343844;28;1966;-72
2023/05/31 08:28:07;;;;;;;;;;;;;;;18.51;76.43;95926.31;10342811;28;4615;-72
2023/05/31 08:33:10;;;;;;;;;;;;;;;18.61;75.69;95928.69;10345598;28;2229;-73
2023/05/31 08:38:12;;;;;;;;;;;;;;;19.02;72.42;95916.50;10345411;28;1682;-71
2023/05/31 08:43:16;;;;;;;;;;;;;;;19.05;68.88;95915.84;10346508;28;2137;-71
2023/05/31 08:48:18;;;;;;;;;;;;;;;19.47;69.67;95913.31;10343248;28;2082;-71
2023/05/31 08:53:21;;;;;;;;;;;;;;;19.50;63.00;95914.59;10343338;28;1922;-71
2023/05/31 08:58:23;;;;;;;;;;;;;;;19.77;64.03;95911.44;10341577;28;1868;-71
2023/05/31 09:03:26;;;;;;;;;;;;;;;19.79;65.74;95911.13;10347280;28;1969;-71
2023/05/31 09:08:33;;;;;;;;;;;;;;;19.55;64.68;95903.50;10340525;28;1891;-71
2023/05/31 09:13:36;;;;;;;;;;;;;;;19.82;62.71;95905.00;10346123;28;2011;-72
2023/05/31 09:18:39;;;;;;;;;;;;;;;19.75;63.76;95910.97;10343324;28;1937;-72
2023/05/31 09:23:41;;;;;;;;;;;;;;;19.93;62.59;95908.97;10361322;28;1946;-70
2023/05/31 09:28:44;;;;;;;;;;;;;;;20.05;59.75;95909.03;10344609;28;4459;-70
2023/05/31 09:33:47;;;;;;;;;;;;;;;19.70;59.97;95911.16;10341568;28;2293;-71
2023/05/31 09:38:50;;;;;;;;;;;;;;;20.30;59.42;95910.00;10342498;28;1859;-70
2023/05/31 09:43:52;;;;;;;;;;;;;;;19.83;58.60;95898.41;10342271;28;1998;-69
2023/05/31 09:48:55;;;;;;;;;;;;;;;19.71;56.98;95904.56;10339766;28;1868;-71
2023/05/31 09:53:58;;;;;;;;;;;;;;;20.09;55.07;95909.97;10340451;28;1951;-70
2023/05/31 09:59:00;;;;;;;;;;;;;;;20.17;54.06;95900.16;10340908;28;1919;-70
2023/05/31 10:04:03;;;;;;;;;;;;;;;20.39;53.58;95891.63;10340318;28;1906;-71
2023/05/31 10:09:06;;;;;;;;;;;;;;;20.19;51.95;95906.06;10339370;28;1941;-70
2023/05/31 10:14:08;;;;;;;;;;;;;;;20.32;52.17;95888.63;10341958;28;1817;-72
2023/05/31 10:19:11;;;;;;;;;;;;;;;20.66;51.60;95890.28;10342398;28;1887;-70
2023/05/31 10:24:14;;;;;;;;;;;;;;;20.69;50.87;95878.72;10342516;28;2008;-70
2023/05/31 10:29:16;;;;;;;;;;;;;;;20.83;48.98;95878.41;10341297;28;4419;-72
2023/05/31 10:34:19;;;;;;;;;;;;;;;20.90;48.94;95883.31;10340696;28;1909;-71
2023/05/31 10:39:22;;;;;;;;;;;;;;;21.66;46.03;95882.00;10340216;28;1931;-71
2023/05/31 10:44:26;;;;;;;;;;;;;;;22.60;42.89;95877.09;10344641;28;1998;-71
2023/05/31 10:49:29;;;;;;;;;;;;;;;21.71;44.15;95890.00;10347008;28;1927;-71
2023/05/31 10:54:31;;;;;;;;;;;;;;;21.71;43.05;95868.09;10345092;28;1973;-71
2023/05/31 10:59:34;;;;;;;;;;;;;;;21.98;43.18;95867.38;10344805;28;1933;-71
2023/05/31 11:04:37;;;;;;;;;;;;;;;22.64;40.49;95861.53;10346545;28;1919;-71
2023/05/31 11:09:40;;;;;;;;;;;;;;;22.52;41.80;95847.06;10351479;28;1820;-70
2023/05/31 11:14:42;;;;;;;;;;;;;;;22.38;42.44;95855.69;10344442;28;2098;-69
2023/05/31 11:19:45;;;;;;;;;;;;;;;22.68;43.02;95845.19;10346920;28;1907;-69
2023/05/31 11:24:49;;;;;;;;;;;;;;;22.27;44.09;95830.75;10344249;28;2142;-69
2023/05/31 11:29:52;;;;;;;;;;;;;;;21.66;44.24;95838.22;10337450;28;1871;-69
2023/05/31 11:34:56;;;;;;;;;;;;;;;21.20;45.33;95838.31;10339640;28;1918;-68
2023/05/31 11:39:58;;;;;;;;;;;;;;;21.37;47.77;95837.31;10343081;28;1880;-69
2023/05/31 11:45:04;;;;;;;;;;;;;;;21.86;47.29;95834.56;10340129;28;1916;-69
2023/05/31 11:50:06;;;;;;;;;;;;;;;21.72;47.42;95834.13;10343220;28;1884;-69
2023/05/31 11:55:09;;;;;;;;;;;;;;;21.44;42.69;95843.03;10342076;28;1889;-69
2023/05/31 12:00:15;;;;;;;;;;;;;;;21.74;41.20;95834.56;10340960;28;1853;-69
2023/05/31 12:05:17;;;;;;;;;;;;;;;21.99;40.47;95825.19;10342721;28;1934;-69
2023/05/31 12:10:20;;;;;;;;;;;;;;;22.35;38.78;95813.38;10338756;28;1927;-69
2023/05/31 12:15:22;;;;;;;;;;;;;;;22.47;40.69;95811.72;10341339;28;1892;-69
2023/05/31 12:20:24;;;;;;;;;;;;;;;22.62;46.21;95814.50;10342034;28;2489;-69
2023/05/31 12:25:27;;;;;;;;;;;;;;;22.20;43.59;95818.78;10342030;28;2008;-69
2023/05/31 12:30:30;;;;;;;;;;;;;;;22.04;40.87;95816.75;10340311;28;4471;-69
2023/05/31 12:35:47;;;;;;;;;;;;;;;22.28;45.44;95815.13;10341570;28;1884;-69
2023/05/31 12:40:50;;;;;;;;;;;;;;;21.94;47.64;95813.69;10339688;28;1899;-68
2023/05/31 12:45:53;;;;;;;;;;;;;;;21.78;45.52;95808.13;10339452;28;2078;-69
2023/05/31 12:50:55;;;;;;;;;;;;;;;22.03;45.02;95796.00;10343630;28;1919;-70
2023/05/31 12:55:59;;;;;;;;;;;;;;;21.96;44.08;95803.19;10346228;28;1835;-69
2023/05/31 13:01:01;;;;;;;;;;;;;;;22.02;45.23;95802.63;10342813;28;1887;-69
2023/05/31 13:06:05;;;;;;;;;;;;;;;22.32;45.52;95794.88;10340931;28;1920;-70
2023/05/31 13:11:07;;;;;;;;;;;;;;;22.74;44.11;95782.72;10342506;28;1918;-69
2023/05/31 13:16:10;;;;;;;;;;;;;;;22.71;42.99;95780.66;10338925;28;2414;-68
2023/05/31 13:21:12;;;;;;;;;;;;;;;22.60;42.59;95786.66;10337068;28;2258;-68
2023/05/31 13:26:15;;;;;;;;;;;;;;;22.60;42.15;95788.63;10339601;28;1910;-69
2023/05/31 13:31:17;;;;;;;;;;;;;;;22.58;43.80;95763.50;10344480;28;4521;-69
2023/05/31 13:36:20;;;;;;;;;;;;;;;22.97;45.90;95772.78;10339744;28;1919;-70
2023/05/31 13:41:23;;;;;;;;;;;;;;;22.72;43.18;95761.16;10338122;28;1843;-69
2023/05/31 13:46:26;;;;;;;;;;;;;;;22.44;42.82;95763.91;10336210;28;1891;-69
2023/05/31 13:51:29;;;;;;;;;;;;;;;22.51;44.65;95761.38;10342432;28;1884;-72
2023/05/31 13:56:31;;;;;;;;;;;;;;;22.76;42.25;95763.97;10341359;28;1919;-69
2023/05/31 14:01:33;;;;;;;;;;;;;;;22.58;39.92;95756.06;10342434;28;2019;-72
2023/05/31 14:06:36;;;;;;;;;;;;;;;22.65;40.74;95759.03;10339040;28;1970;-70
2023/05/31 14:11:39;;;;;;;;;;;;;;;22.73;40.71;95761.94;10343348;28;1882;-69
2023/05/31 14:16:41;;;;;;;;;;;;;;;22.79;38.00;95746.84;10337897;28;1903;-72
2023/05/31 14:21:44;;;;;;;;;;;;;;;22.70;38.75;95741.50;10336769;28;1817;-70
2023/05/31 14:26:46;;;;;;;;;;;;;;;23.24;40.59;95720.94;10332504;28;4216;-69
2023/05/31 14:31:49;;;;;;;;;;;;;;;23.50;39.78;95732.13;10333099;28;1945;-70
2023/05/31 14:36:51;;;;;;;;;;;;;;;23.33;39.60;95721.53;10336407;28;1994;-69
2023/05/31 14:41:54;;;;;;;;;;;;;;;23.19;40.29;95728.28;10340374;28;1875;-70
2023/05/31 14:46:58;;;;;;;;;;;;;;;23.41;40.49;95715.88;10340210;28;2293;-70
2023/05/31 14:52:01;;;;;;;;;;;;;;;23.65;37.33;95723.09;10336848;28;2137;-70
2023/05/31 14:57:04;;;;;;;;;;;;;;;23.13;37.34;95716.00;10342314;28;1859;-69
2023/05/31 15:02:07;;;;;;;;;;;;;;;23.13;35.68;95710.50;10337829;28;2015;-67
2023/05/31 15:07:11;;;;;;;;;;;;;;;23.66;35.77;95710.94;10336921;28;1983;-69
2023/05/31 15:12:13;;;;;;;;;;;;;;;23.32;35.78;95719.94;10336412;28;1867;-73
2023/05/31 15:17:16;;;;;;;;;;;;;;;23.46;34.11;95723.00;10336956;28;1896;-69
2023/05/31 15:22:18;;;;;;;;;;;;;;;23.36;33.77;95715.34;10333924;28;1974;-70
2023/05/31 15:27:21;;;;;;;;;;;;;;;23.65;34.81;95700.34;10340644;28;1987;-68
2023/05/31 15:32:23;;;;;;;;;;;;;;;24.16;35.24;95703.75;10342927;28;1890;-70
2023/05/31 15:37:26;;;;;;;;;;;;;;;23.79;34.93;95697.09;10344818;28;1983;-69
2023/05/31 15:42:28;;;;;;;;;;;;;;;23.87;35.46;95701.59;10341850;28;1938;-69
2023/05/31 15:47:30;;;;;;;;;;;;;;;23.65;37.38;95698.38;10337201;28;1962;-68
2023/05/31 15:52:33;;;;;;;;;;;;;;;23.42;38.04;95694.72;10341334;28;1895;-69
2023/05/31 15:57:35;;;;;;;;;;;;;;;23.22;37.99;95690.31;10338648;28;1883;-69
2023/05/31 16:02:38;;;;;;;;;;;;;;;22.99;38.48;95695.69;10332122;28;1914;-68
2023/05/31 16:07:40;;;;;;;;;;;;;;;23.07;39.92;95692.75;10342269;28;2296;-68
2023/05/31 16:12:42;;;;;;;;;;;;;;;22.84;41.37;95700.78;10341376;28;2098;-68
2023/05/31 16:17:45;;;;;;;;;;;;;;;22.75;42.60;95696.63;10342491;28;1918;-68
2023/05/31 16:22:47;;;;;;;;;;;;;;;22.51;42.88;95673.72;10341166;28;1959;-69
2023/05/31 16:27:50;;;;;;;;;;;;;;;22.50;44.08;95674.88;10338506;28;4392;-67
2023/05/31 16:32:53;;;;;;;;;;;;;;;22.36;45.30;95667.06;10339117;28;1930;-68
2023/05/31 16:37:55;;;;;;;;;;;;;;;22.43;46.94;95669.22;10341975;28;1906;-68
2023/05/31 16:42:58;;;;;;;;;;;;;;;22.08;47.15;95666.31;10339105;28;1965;-69
2023/05/31 16:48:00;;;;;;;;;;;;;;;22.18;48.42;95662.28;10343526;28;1979;-68
2023/05/31 16:58:47;;;;;;;;;;;;;;;22.01;48.05;95664.16;10334537;28;2151;-68
2023/05/31 17:03:50;;;;;;;;;;;;;;;22.00;47.45;95662.56;10336742;28;2536;-69
2023/05/31 17:08:53;;;;;;;;;;;;;;;22.02;49.30;95663.03;10336628;28;1997;-68
2023/05/31 17:13:55;;;;;;;;;;;;;;;22.01;51.03;95666.09;10336466;28;2055;-68
2023/05/31 17:18:58;;;;;;;;;;;;;;;21.85;52.63;95660.59;10345313;28;1958;-69
2023/05/31 17:24:01;;;;;;;;;;;;;;;21.75;53.78;95678.28;10338361;28;2040;-69
2023/05/31 17:29:03;;;;;;;;;;;;;;;21.61;54.48;95671.59;10348567;28;4500;-69
2023/05/31 17:34:06;;;;;;;;;;;;;;;21.63;54.58;95667.41;10342121;28;1966;-69
2023/05/31 17:39:09;;;;;;;;;;;;;;;21.51;55.29;95668.22;10340681;28;2086;-69
2023/05/31 17:44:12;;;;;;;;;;;;;;;21.48;56.24;95668.91;10334764;28;1943;-69
2023/05/31 17:49:14;;;;;;;;;;;;;;;21.38;57.57;95663.94;10338166;28;1906;-69
2023/05/31 17:54:20;;;;;;;;;;;;;;;21.39;59.49;95671.00;10336273;28;1906;-68
2023/05/31 17:59:23;;;;;;;;;;;;;;;21.30;61.49;95662.09;10336724;28;2297;-69
2023/05/31 18:04:26;;;;;;;;;;;;;;;21.22;59.68;95666.53;10338369;28;2039;-68
2023/05/31 18:09:29;;;;;;;;;;;;;;;21.04;60.97;95663.25;10337044;28;1962;-69
2023/05/31 18:14:31;;;;;;;;;;;;;;;20.94;62.55;95671.13;10339980;28;1915;-68
2023/05/31 18:19:34;;;;;;;;;;;;;;;20.82;64.52;95662.94;10336683;28;1922;-70
2023/05/31 18:24:37;;;;;;;;;;;;;;;20.70;67.34;95671.91;10334619;28;1967;-69
2023/05/31 18:29:39;;;;;;;;;;;;;;;20.61;69.00;95673.94;10335673;28;4380;-70
2023/05/31 18:34:42;;;;;;;;;;;;;;;20.36;72.55;95679.38;10336181;28;1943;-70
2023/05/31 18:39:44;;;;;;;;;;;;;;;20.28;74.78;95672.03;10338006;28;1887;-69
2023/05/31 18:44:47;;;;;;;;;;;;;;;20.08;78.75;95672.91;10335308;28;1959;-71
2023/05/31 18:49:50;;;;;;;;;;;;;;;19.96;81.03;95679.91;10334227;28;1994;-70
2023/05/31 18:54:52;;;;;;;;;;;;;;;19.81;83.09;95683.28;10340545;28;2169;-70
2023/05/31 18:59:56;;;;;;;;;;;;;;;19.76;85.19;95677.22;10340487;28;2070;-68
2023/05/31 19:05:00;;;;;;;;;;;;;;;19.59;87.41;95680.88;10346295;28;1936;-70
2023/05/31 19:10:03;;;;;;;;;;;;;;;19.41;90.79;95686.47;10349396;28;1918;-69
2023/05/31 19:15:06;;;;;;;;;;;;;;;19.37;92.66;95677.34;10349287;28;1915;-69
2023/05/31 19:20:09;;;;;;;;;;;;;;;19.21;94.54;95686.41;10351271;28;1913;-69
2023/05/31 19:25:12;;;;;;;;;;;;;;;19.10;96.10;95699.66;10347452;28;1963;-69
2023/05/31 19:30:14;;;;;;;;;;;;;;;19.00;97.59;95697.28;10346482;28;4549;-69
2023/05/31 19:35:17;;;;;;;;;;;;;;;18.84;99.57;95702.50;10345016;28;1866;-70
2023/05/31 19:40:20;;;;;;;;;;;;;;;18.76;100.00;95706.06;10342251;28;1935;-69
2023/05/31 19:45:23;;;;;;;;;;;;;;;18.68;100.00;95710.41;10343144;28;1925;-69
2023/05/31 19:50:25;;;;;;;;;;;;;;;18.53;100.00;95713.66;10349861;28;2348;-70
2023/05/31 19:55:27;;;;;;;;;;;;;;;18.46;100.00;95722.31;10347295;28;1906;-70
2023/05/31 20:00:30;;;;;;;;;;;;;;;18.41;100.00;95721.69;10348115;28;1871;-70
2023/05/31 20:05:32;;;;;;;;;;;;;;;18.25;100.00;95716.75;10342165;28;2062;-70
2023/05/31 20:10:35;;;;;;;;;;;;;;;18.23;100.00;95716.28;10342538;28;1856;-71
2023/05/31 20:15:37;;;;;;;;;;;;;;;18.13;100.00;95719.34;10344188;28;1895;-71
2023/05/31 20:20:40;;;;;;;;;;;;;;;18.03;100.00;95708.81;10338274;28;2138;-71
2023/05/31 20:25:43;;;;;;;;;;;;;;;18.00;100.00;95709.44;10341104;28;1914;-70
2023/05/31 20:30:45;;;;;;;;;;;;;;;17.94;100.00;95708.00;10341664;28;4365;-70
2023/05/31 20:35:48;;;;;;;;;;;;;;;17.92;100.00;95710.25;10349400;28;2161;-70
2023/05/31 20:40:51;;;;;;;;;;;;;;;17.81;100.00;95707.88;10349120;28;1940;-70
2023/05/31 20:45:55;;;;;;;;;;;;;;;17.83;100.00;95708.34;10349560;28;2227;-69
2023/05/31 20:50:57;;;;;;;;;;;;;;;17.75;100.00;95713.78;10346797;28;1908;-71
2023/05/31 20:56:00;;;;;;;;;;;;;;;17.64;100.00;95707.84;10348314;28;1919;-68
2023/05/31 21:01:03;;;;;;;;;;;;;;;17.61;100.00;95711.19;10347668;28;1926;-70
2023/05/31 21:06:06;;;;;;;;;;;;;;;17.62;100.00;95704.63;10342577;28;1891;-70
2023/05/31 21:11:09;;;;;;;;;;;;;;;17.54;100.00;95700.00;10344060;28;1848;-69
2023/05/31 21:16:11;;;;;;;;;;;;;;;17.52;100.00;95703.06;10344599;28;1844;-70
2023/05/31 21:21:14;;;;;;;;;;;;;;;17.42;100.00;95700.63;10347521;28;1923;-69
2023/05/31 21:26:17;;;;;;;;;;;;;;;17.29;100.00;95705.09;10343048;28;1959;-69
2023/05/31 21:31:22;;;;;;;;;;;;;;;17.17;100.00;95704.91;10341944;28;4766;-71
2023/05/31 21:36:25;;;;;;;;;;;;;;;17.02;100.00;95717.03;10346033;28;1959;-69
2023/05/31 21:41:27;;;;;;;;;;;;;;;16.91;100.00;95715.72;10342080;28;2305;-70
2023/05/31 21:46:29;;;;;;;;;;;;;;;16.90;100.00;95724.19;10343348;28;1986;-70
2023/05/31 21:51:32;;;;;;;;;;;;;;;16.90;100.00;95719.56;10345862;28;1950;-69
2023/05/31 21:56:34;;;;;;;;;;;;;;;16.92;100.00;95721.94;10347685;28;1878;-69
2023/05/31 22:01:37;;;;;;;;;;;;;;;16.81;100.00;95715.22;10345214;28;1883;-69
2023/05/31 22:06:40;;;;;;;;;;;;;;;16.79;100.00;95720.16;10346251;28;1948;-69
2023/05/31 22:11:42;;;;;;;;;;;;;;;16.74;100.00;95718.41;10344382;28;1974;-70
2023/05/31 22:16:47;;;;;;;;;;;;;;;16.69;100.00;95721.22;10345432;28;1839;-70
2023/05/31 22:21:50;;;;;;;;;;;;;;;16.51;100.00;95723.06;10343631;28;2031;-70
2023/05/31 22:26:53;;;;;;;;;;;;;;;16.36;100.00;95726.19;10343923;28;4471;-70
2023/05/31 22:31:55;;;;;;;;;;;;;;;16.38;100.00;95713.91;10343114;28;1859;-70
2023/05/31 22:36:57;;;;;;;;;;;;;;;16.24;100.00;95723.25;10351639;28;1875;-70
2023/05/31 22:42:01;;;;;;;;;;;;;;;16.18;100.00;95719.84;10355961;28;2181;-70
2023/05/31 22:47:06;;;;;;;;;;;;;;;16.15;100.00;95715.84;10358356;28;1891;-70
2023/05/31 22:52:08;;;;;;;;;;;;;;;16.12;100.00;95713.75;10356746;28;1886;-70
2023/05/31 22:57:11;;;;;;;;;;;;;;;16.04;100.00;95722.66;10359993;28;1940;-70
2023/05/31 23:02:15;;;;;;;;;;;;;;;15.98;100.00;95720.38;10353435;28;1906;-70
2023/05/31 23:07:18;;;;;;;;;;;;;;;15.84;100.00;95715.00;10355876;28;1977;-69
2023/05/31 23:12:24;;;;;;;;;;;;;;;15.74;100.00;95720.66;10357406;28;1931;-69
2023/05/31 23:17:29;;;;;;;;;;;;;;;15.70;100.00;95706.13;10354782;28;1907;-69
2023/05/31 23:22:32;;;;;;;;;;;;;;;15.61;100.00;95712.25;10356667;28;2074;-68
2023/05/31 23:27:35;;;;;;;;;;;;;;;15.54;100.00;95708.38;10358336;28;4420;-69
2023/05/31 23:32:37;;;;;;;;;;;;;;;15.38;100.00;95705.19;10353032;28;1962;-69
2023/05/31 23:37:40;;;;;;;;;;;;;;;15.41;100.00;95701.91;10354021;28;2407;-68
2023/05/31 23:42:43;;;;;;;;;;;;;;;15.24;100.00;95704.44;10354684;28;1898;-69
2023/05/31 23:47:46;;;;;;;;;;;;;;;15.16;100.00;95707.88;10351848;28;1990;-69
2023/05/31 23:52:48;;;;;;;;;;;;;;;15.08;100.00;95704.78;10349548;28;1904;-70
2023/05/31 23:57:51;;;;;;;;;;;;;;;15.02;100.00;95700.59;10347008;28;1882;-69
